sensor_id;sensor_type;location;lat;lon;timestamp;pressure;altitude;pressure_sealevel;temperature;humidity
30618;BME280;17384;51.214;9.202;2023-01-31T00:00:54;99246.88;;;2.22;81.17
30618;BME280;17384;51.214;9.202;2023-01-31T00:03:20;99244.53;;;2.19;81.66
30618;BME280;17384;51.214;9.202;2023-01-31T00:05:46;99252.63;;;2.09;82.49
30618;BME280;17384;51.214;9.202;2023-01-31T00:08:11;99246.56;;;2.07;82.86
30618;BME280;17384;51.214;9.202;2023-01-31T00:10:38;99243.66;;;2.00;82.91
30618;BME280;17384;51.214;9.202;2023-01-31T00:13:04;99245.63;;;1.98;82.88
30618;BME280;17384;51.214;9.202;2023-01-31T00:15:29;99244.72;;;2.08;82.50
30618;BME280;17384;51.214;9.202;2023-01-31T00:17:55;99234.63;;;2.01;82.58
30618;BME280;17384;51.214;9.202;2023-01-31T00:20:21;99236.47;;;2.01;82.81
30618;BME280;17384;51.214;9.202;2023-01-31T00:22:46;99238.84;;;2.04;82.88
30618;BME280;17384;51.214;9.202;2023-01-31T00:25:12;99228.44;;;2.01;82.43
30618;BME280;17384;51.214;9.202;2023-01-31T00:27:40;99241.81;;;2.01;82.80
30618;BME280;17384;51.214;9.202;2023-01-31T00:30:06;99250.13;;;1.98;82.71
30618;BME280;17384;51.214;9.202;2023-01-31T00:32:35;99253.09;;;1.95;82.99
30618;BME280;17384;51.214;9.202;2023-01-31T00:35:00;99241.41;;;1.96;82.81
30618;BME280;17384;51.214;9.202;2023-01-31T00:37:26;99246.91;;;1.94;82.67
30618;BME280;17384;51.214;9.202;2023-01-31T00:39:51;99231.56;;;1.96;82.38
30618;BME280;17384;51.214;9.202;2023-01-31T00:42:17;99246.75;;;1.96;82.20
30618;BME280;17384;51.214;9.202;2023-01-31T00:44:42;99228.44;;;2.01;81.78
30618;BME280;17384;51.214;9.202;2023-01-31T00:47:08;99236.91;;;1.96;81.96
30618;BME280;17384;51.214;9.202;2023-01-31T00:49:33;99244.88;;;2.06;81.20
30618;BME280;17384;51.214;9.202;2023-01-31T00:51:59;99248.84;;;2.02;81.61
30618;BME280;17384;51.214;9.202;2023-01-31T00:54:24;99253.81;;;1.97;81.51
30618;BME280;17384;51.214;9.202;2023-01-31T00:56:50;99246.88;;;2.04;80.40
30618;BME280;17384;51.214;9.202;2023-01-31T00:59:15;99248.53;;;2.05;80.05
30618;BME280;17384;51.214;9.202;2023-01-31T01:01:41;99238.00;;;2.03;79.45
30618;BME280;17384;51.214;9.202;2023-01-31T01:04:06;99223.31;;;2.08;78.62
30618;BME280;17384;51.214;9.202;2023-01-31T01:06:32;99240.47;;;2.15;78.55
30618;BME280;17384;51.214;9.202;2023-01-31T01:08:58;99230.06;;;2.12;78.17
30618;BME280;17384;51.214;9.202;2023-01-31T01:11:29;99245.28;;;2.11;78.40
30618;BME280;17384;51.214;9.202;2023-01-31T01:13:56;99235.41;;;2.12;77.67
30618;BME280;17384;51.214;9.202;2023-01-31T01:16:24;99248.41;;;2.24;76.93
30618;BME280;17384;51.214;9.202;2023-01-31T01:18:51;99254.41;;;2.18;76.86
30618;BME280;17384;51.214;9.202;2023-01-31T01:21:24;99261.94;;;2.23;76.25
30618;BME280;17384;51.214;9.202;2023-01-31T01:23:50;99264.63;;;2.23;75.86
30618;BME280;17384;51.214;9.202;2023-01-31T01:26:22;99273.50;;;2.23;75.71
30618;BME280;17384;51.214;9.202;2023-01-31T01:28:50;99276.72;;;2.27;75.64
30618;BME280;17384;51.214;9.202;2023-01-31T01:31:16;99262.34;;;2.28;75.23
30618;BME280;17384;51.214;9.202;2023-01-31T01:33:42;99256.00;;;2.29;75.38
30618;BME280;17384;51.214;9.202;2023-01-31T01:36:10;99261.19;;;2.30;74.96
30618;BME280;17384;51.214;9.202;2023-01-31T01:38:38;99267.00;;;2.26;74.71
30618;BME280;17384;51.214;9.202;2023-01-31T01:41:04;99273.50;;;2.23;75.10
30618;BME280;17384;51.214;9.202;2023-01-31T01:43:54;99262.19;;;2.29;74.79
30618;BME280;17384;51.214;9.202;2023-01-31T01:49:00;99265.63;;;2.22;75.32
30618;BME280;17384;51.214;9.202;2023-01-31T01:51:28;99257.59;;;2.22;75.88
30618;BME280;17384;51.214;9.202;2023-01-31T01:53:56;99256.75;;;2.21;76.17
30618;BME280;17384;51.214;9.202;2023-01-31T01:56:31;99268.53;;;2.28;75.95
30618;BME280;17384;51.214;9.202;2023-01-31T01:59:06;99259.81;;;2.26;76.32
30618;BME280;17384;51.214;9.202;2023-01-31T02:01:35;99268.28;;;2.22;76.42
30618;BME280;17384;51.214;9.202;2023-01-31T02:04:02;99256.44;;;2.24;76.50
30618;BME280;17384;51.214;9.202;2023-01-31T02:06:30;99267.16;;;2.24;76.52
30618;BME280;17384;51.214;9.202;2023-01-31T02:08:56;99267.59;;;2.20;76.75
30618;BME280;17384;51.214;9.202;2023-01-31T02:11:25;99283.50;;;2.21;76.52
30618;BME280;17384;51.214;9.202;2023-01-31T02:13:59;99278.16;;;2.21;76.30
30618;BME280;17384;51.214;9.202;2023-01-31T02:16:25;99282.22;;;2.25;76.15
30618;BME280;17384;51.214;9.202;2023-01-31T02:18:51;99285.03;;;2.24;76.26
30618;BME280;17384;51.214;9.202;2023-01-31T02:32:37;99274.97;;;2.18;76.46
30618;BME280;17384;51.214;9.202;2023-01-31T02:35:36;99282.50;;;2.04;76.80
30618;BME280;17384;51.214;9.202;2023-01-31T02:41:12;99297.00;;;2.02;76.88
30618;BME280;17384;51.214;9.202;2023-01-31T02:43:53;99298.41;;;2.06;76.80
30618;BME280;17384;51.214;9.202;2023-01-31T02:49:46;99304.63;;;1.97;77.38
30618;BME280;17384;51.214;9.202;2023-01-31T02:52:19;99314.06;;;2.01;77.08
30618;BME280;17384;51.214;9.202;2023-01-31T02:57:56;99295.03;;;2.04;76.68
30618;BME280;17384;51.214;9.202;2023-01-31T03:00:23;99311.50;;;2.09;76.49
30618;BME280;17384;51.214;9.202;2023-01-31T03:02:50;99313.47;;;2.07;76.28
30618;BME280;17384;51.214;9.202;2023-01-31T03:05:17;99324.06;;;1.99;76.32
30618;BME280;17384;51.214;9.202;2023-01-31T03:07:47;99326.19;;;1.95;76.12
30618;BME280;17384;51.214;9.202;2023-01-31T03:19:00;99314.56;;;2.14;73.85
30618;BME280;17384;51.214;9.202;2023-01-31T03:21:35;99307.53;;;2.13;73.86
30618;BME280;17384;51.214;9.202;2023-01-31T03:24:05;99316.63;;;2.20;73.24
30618;BME280;17384;51.214;9.202;2023-01-31T03:26:32;99311.66;;;2.25;73.07
30618;BME280;17384;51.214;9.202;2023-01-31T03:29:00;99315.34;;;2.24;72.82
30618;BME280;17384;51.214;9.202;2023-01-31T03:31:37;99317.16;;;2.24;72.76
30618;BME280;17384;51.214;9.202;2023-01-31T03:34:06;99324.19;;;2.25;72.44
30618;BME280;17384;51.214;9.202;2023-01-31T03:41:59;99331.69;;;2.21;72.93
30618;BME280;17384;51.214;9.202;2023-01-31T03:44:38;99324.19;;;2.25;72.88
30618;BME280;17384;51.214;9.202;2023-01-31T03:47:18;99316.47;;;2.22;72.62
30618;BME280;17384;51.214;9.202;2023-01-31T03:49:48;99318.00;;;2.24;72.68
30618;BME280;17384;51.214;9.202;2023-01-31T03:52:19;99322.38;;;2.25;72.79
30618;BME280;17384;51.214;9.202;2023-01-31T03:55:13;99318.00;;;2.24;72.93
30618;BME280;17384;51.214;9.202;2023-01-31T03:57:41;99310.31;;;2.39;72.16
30618;BME280;17384;51.214;9.202;2023-01-31T04:00:12;99305.03;;;2.29;72.33
30618;BME280;17384;51.214;9.202;2023-01-31T04:02:39;99304.91;;;2.21;72.30
30618;BME280;17384;51.214;9.202;2023-01-31T04:07:35;99307.34;;;2.42;71.69
30618;BME280;17384;51.214;9.202;2023-01-31T04:10:02;99296.09;;;2.38;71.38
30618;BME280;17384;51.214;9.202;2023-01-31T04:12:34;99300.94;;;2.25;71.55
30618;BME280;17384;51.214;9.202;2023-01-31T04:15:00;99294.91;;;2.23;71.32
30618;BME280;17384;51.214;9.202;2023-01-31T04:17:26;99289.69;;;2.22;71.34
30618;BME280;17384;51.214;9.202;2023-01-31T04:19:51;99303.56;;;2.17;71.33
30618;BME280;17384;51.214;9.202;2023-01-31T04:22:16;99299.19;;;2.16;71.33
30618;BME280;17384;51.214;9.202;2023-01-31T04:24:42;99286.75;;;2.43;69.82
30618;BME280;17384;51.214;9.202;2023-01-31T04:27:07;99288.50;;;2.34;69.87
30618;BME280;17384;51.214;9.202;2023-01-31T04:29:32;99300.34;;;2.31;70.24
30618;BME280;17384;51.214;9.202;2023-01-31T04:31:58;99286.22;;;2.39;69.67
30618;BME280;17384;51.214;9.202;2023-01-31T04:34:23;99286.47;;;2.46;69.66
30618;BME280;17384;51.214;9.202;2023-01-31T04:36:49;99295.16;;;2.48;69.17
30618;BME280;17384;51.214;9.202;2023-01-31T04:39:14;99286.47;;;2.46;69.78
30618;BME280;17384;51.214;9.202;2023-01-31T04:41:40;99300.84;;;2.45;69.82
30618;BME280;17384;51.214;9.202;2023-01-31T04:44:06;99292.97;;;2.43;69.50
30618;BME280;17384;51.214;9.202;2023-01-31T04:46:31;99293.56;;;2.37;70.31
30618;BME280;17384;51.214;9.202;2023-01-31T04:48:57;99294.16;;;2.31;70.71
30618;BME280;17384;51.214;9.202;2023-01-31T04:51:22;99291.19;;;2.34;70.53
30618;BME280;17384;51.214;9.202;2023-01-31T04:53:47;99297.63;;;2.41;70.49
30618;BME280;17384;51.214;9.202;2023-01-31T04:56:13;99296.16;;;2.29;70.84
30618;BME280;17384;51.214;9.202;2023-01-31T04:58:38;99288.34;;;2.18;71.65
30618;BME280;17384;51.214;9.202;2023-01-31T05:01:06;99284.50;;;2.20;72.05
30618;BME280;17384;51.214;9.202;2023-01-31T05:03:31;99280.31;;;2.35;71.47
30618;BME280;17384;51.214;9.202;2023-01-31T05:05:57;99277.81;;;2.34;71.60
30618;BME280;17384;51.214;9.202;2023-01-31T05:08:22;99264.97;;;2.37;71.61
30618;BME280;17384;51.214;9.202;2023-01-31T05:10:48;99270.31;;;2.37;71.57
30618;BME280;17384;51.214;9.202;2023-01-31T05:13:13;99265.66;;;2.40;71.37
30618;BME280;17384;51.214;9.202;2023-01-31T05:15:39;99252.41;;;2.38;71.52
30618;BME280;17384;51.214;9.202;2023-01-31T05:18:04;99268.47;;;2.38;71.82
30618;BME280;17384;51.214;9.202;2023-01-31T05:20:33;99263.19;;;2.28;71.93
30618;BME280;17384;51.214;9.202;2023-01-31T05:23:01;99270.50;;;2.26;72.14
30618;BME280;17384;51.214;9.202;2023-01-31T05:25:26;99269.91;;;2.32;71.86
30618;BME280;17384;51.214;9.202;2023-01-31T05:27:52;99280.63;;;2.32;72.47
30618;BME280;17384;51.214;9.202;2023-01-31T05:30:18;99269.44;;;2.19;72.69
30618;BME280;17384;51.214;9.202;2023-01-31T05:32:45;99259.81;;;2.26;73.09
30618;BME280;17384;51.214;9.202;2023-01-31T05:35:12;99256.13;;;2.27;72.57
30618;BME280;17384;51.214;9.202;2023-01-31T05:37:37;99264.25;;;2.35;72.49
30618;BME280;17384;51.214;9.202;2023-01-31T05:40:09;99263.28;;;2.36;72.99
30618;BME280;17384;51.214;9.202;2023-01-31T05:42:34;99263.47;;;2.25;73.27
30618;BME280;17384;51.214;9.202;2023-01-31T05:45:00;99264.78;;;2.21;72.97
30618;BME280;17384;51.214;9.202;2023-01-31T05:47:25;99255.84;;;2.30;73.10
30618;BME280;17384;51.214;9.202;2023-01-31T05:49:50;99258.22;;;2.33;73.11
30618;BME280;17384;51.214;9.202;2023-01-31T05:52:16;99264.91;;;2.20;73.79
30618;BME280;17384;51.214;9.202;2023-01-31T05:54:41;99266.75;;;2.19;73.82
30618;BME280;17384;51.214;9.202;2023-01-31T05:57:07;99275.94;;;2.17;74.06
30618;BME280;17384;51.214;9.202;2023-01-31T05:59:32;99271.97;;;2.21;73.60
30618;BME280;17384;51.214;9.202;2023-01-31T06:01:58;99271.63;;;2.06;74.53
30618;BME280;17384;51.214;9.202;2023-01-31T06:04:23;99257.81;;;2.11;74.25
30618;BME280;17384;51.214;9.202;2023-01-31T06:06:48;99258.72;;;2.19;74.09
30618;BME280;17384;51.214;9.202;2023-01-31T06:09:14;99267.16;;;2.24;73.80
30618;BME280;17384;51.214;9.202;2023-01-31T06:11:39;99242.16;;;2.16;74.23
30618;BME280;17384;51.214;9.202;2023-01-31T06:14:05;99249.69;;;2.20;74.29
30618;BME280;17384;51.214;9.202;2023-01-31T06:16:30;99250.69;;;2.19;74.28
30618;BME280;17384;51.214;9.202;2023-01-31T06:18:56;99253.38;;;2.19;74.01
30618;BME280;17384;51.214;9.202;2023-01-31T06:21:22;99264.06;;;2.19;74.17
30618;BME280;17384;51.214;9.202;2023-01-31T06:23:47;99258.22;;;2.16;74.38
30618;BME280;17384;51.214;9.202;2023-01-31T06:26:13;99262.22;;;2.02;74.83
30618;BME280;17384;51.214;9.202;2023-01-31T06:28:39;99255.44;;;2.08;74.79
30618;BME280;17384;51.214;9.202;2023-01-31T06:31:06;99266.88;;;2.00;74.96
30618;BME280;17384;51.214;9.202;2023-01-31T06:33:32;99261.75;;;1.89;75.60
30618;BME280;17384;51.214;9.202;2023-01-31T06:36:00;99257.44;;;1.78;75.70
30618;BME280;17384;51.214;9.202;2023-01-31T06:38:27;99259.78;;;1.63;76.30
30618;BME280;17384;51.214;9.202;2023-01-31T06:40:52;99257.00;;;1.83;76.00
30618;BME280;17384;51.214;9.202;2023-01-31T06:43:18;99266.00;;;1.82;75.95
30618;BME280;17384;51.214;9.202;2023-01-31T06:45:43;99258.13;;;1.80;76.20
30618;BME280;17384;51.214;9.202;2023-01-31T06:48:10;99273.47;;;1.78;76.44
30618;BME280;17384;51.214;9.202;2023-01-31T06:50:35;99260.34;;;1.57;76.65
30618;BME280;17384;51.214;9.202;2023-01-31T06:53:01;99269.22;;;1.58;76.94
30618;BME280;17384;51.214;9.202;2023-01-31T06:55:26;99262.22;;;1.47;77.54
30618;BME280;17384;51.214;9.202;2023-01-31T06:57:52;99262.00;;;1.31;77.81
30618;BME280;17384;51.214;9.202;2023-01-31T07:00:17;99251.19;;;1.23;78.66
30618;BME280;17384;51.214;9.202;2023-01-31T07:02:44;99244.28;;;1.30;78.65
30618;BME280;17384;51.214;9.202;2023-01-31T07:05:10;99255.38;;;1.35;78.69
30618;BME280;17384;51.214;9.202;2023-01-31T07:07:35;99257.34;;;1.33;78.36
30618;BME280;17384;51.214;9.202;2023-01-31T07:10:01;99252.50;;;1.46;78.20
30618;BME280;17384;51.214;9.202;2023-01-31T07:12:27;99248.44;;;1.42;78.63
30618;BME280;17384;51.214;9.202;2023-01-31T07:14:52;99249.56;;;1.40;78.56
30618;BME280;17384;51.214;9.202;2023-01-31T07:17:17;99248.03;;;1.37;78.96
30618;BME280;17384;51.214;9.202;2023-01-31T07:19:45;99251.88;;;1.34;79.13
30618;BME280;17384;51.214;9.202;2023-01-31T07:22:11;99254.22;;;1.38;79.24
30618;BME280;17384;51.214;9.202;2023-01-31T07:24:36;99260.41;;;1.38;79.21
30618;BME280;17384;51.214;9.202;2023-01-31T07:27:02;99245.06;;;1.40;79.46
30618;BME280;17384;51.214;9.202;2023-01-31T07:29:27;99250.25;;;1.51;79.32
30618;BME280;17384;51.214;9.202;2023-01-31T07:31:55;99247.00;;;1.48;79.26
30618;BME280;17384;51.214;9.202;2023-01-31T07:34:22;99246.31;;;1.46;79.48
30618;BME280;17384;51.214;9.202;2023-01-31T07:36:50;99235.78;;;1.44;79.68
30618;BME280;17384;51.214;9.202;2023-01-31T07:39:16;99235.22;;;1.41;79.94
30618;BME280;17384;51.214;9.202;2023-01-31T07:41:42;99231.25;;;1.45;80.22
30618;BME280;17384;51.214;9.202;2023-01-31T07:44:08;99231.81;;;1.48;80.14
30618;BME280;17384;51.214;9.202;2023-01-31T07:46:38;99226.28;;;1.59;79.88
30618;BME280;17384;51.214;9.202;2023-01-31T07:49:04;99223.06;;;1.56;80.23
30618;BME280;17384;51.214;9.202;2023-01-31T07:51:29;99215.03;;;1.83;79.74
30618;BME280;17384;51.214;9.202;2023-01-31T07:53:55;99217.81;;;1.91;79.41
30618;BME280;17384;51.214;9.202;2023-01-31T07:56:21;99219.47;;;1.92;79.53
30618;BME280;17384;51.214;9.202;2023-01-31T07:58:48;99229.31;;;1.92;79.23
30618;BME280;17384;51.214;9.202;2023-01-31T08:01:24;99246.69;;;1.88;79.74
30618;BME280;17384;51.214;9.202;2023-01-31T08:04:11;99236.47;;;1.74;80.15
30618;BME280;17384;51.214;9.202;2023-01-31T08:06:38;99239.56;;;1.79;80.43
30618;BME280;17384;51.214;9.202;2023-01-31T08:09:04;99220.25;;;1.85;80.13
30618;BME280;17384;51.214;9.202;2023-01-31T08:11:30;99213.06;;;2.03;79.51
30618;BME280;17384;51.214;9.202;2023-01-31T08:13:55;99218.28;;;2.04;79.65
30618;BME280;17384;51.214;9.202;2023-01-31T08:16:21;99220.94;;;2.04;79.38
30618;BME280;17384;51.214;9.202;2023-01-31T08:18:47;99219.13;;;2.05;79.67
30618;BME280;17384;51.214;9.202;2023-01-31T08:21:14;99221.44;;;2.18;79.54
30618;BME280;17384;51.214;9.202;2023-01-31T08:23:40;99214.59;;;2.23;79.24
30618;BME280;17384;51.214;9.202;2023-01-31T08:26:09;99202.44;;;2.29;79.57
30618;BME280;17384;51.214;9.202;2023-01-31T08:28:36;99194.47;;;2.55;78.47
30618;BME280;17384;51.214;9.202;2023-01-31T08:31:04;99181.50;;;2.42;78.56
30618;BME280;17384;51.214;9.202;2023-01-31T08:33:29;99176.19;;;2.50;78.40
30618;BME280;17384;51.214;9.202;2023-01-31T08:35:55;99183.25;;;2.77;77.57
30618;BME280;17384;51.214;9.202;2023-01-31T08:38:21;99171.91;;;2.83;77.19
30618;BME280;17384;51.214;9.202;2023-01-31T08:40:47;99183.78;;;2.81;77.29
30618;BME280;17384;51.214;9.202;2023-01-31T08:43:14;99172.75;;;2.84;77.42
30618;BME280;17384;51.214;9.202;2023-01-31T08:45:40;99175.06;;;3.04;76.73
30618;BME280;17384;51.214;9.202;2023-01-31T08:48:06;99187.75;;;3.20;76.18
30618;BME280;17384;51.214;9.202;2023-01-31T08:50:31;99196.63;;;3.21;76.38
30618;BME280;17384;51.214;9.202;2023-01-31T08:53:00;99199.31;;;3.29;75.20
30618;BME280;17384;51.214;9.202;2023-01-31T08:55:27;99171.56;;;3.38;74.66
30618;BME280;17384;51.214;9.202;2023-01-31T08:57:53;99167.28;;;3.53;74.18
30618;BME280;17384;51.214;9.202;2023-01-31T09:00:20;99158.56;;;3.59;73.74
30618;BME280;17384;51.214;9.202;2023-01-31T09:02:54;99170.00;;;3.69;73.22
30618;BME280;17384;51.214;9.202;2023-01-31T09:05:20;99162.94;;;3.60;74.17
30618;BME280;17384;51.214;9.202;2023-01-31T09:07:46;99170.69;;;3.71;73.86
30618;BME280;17384;51.214;9.202;2023-01-31T09:10:11;99161.47;;;3.74;73.27
30618;BME280;17384;51.214;9.202;2023-01-31T09:12:37;99154.91;;;3.68;73.98
30618;BME280;17384;51.214;9.202;2023-01-31T09:15:03;99169.56;;;3.82;73.82
30618;BME280;17384;51.214;9.202;2023-01-31T09:17:29;99163.88;;;3.93;72.54
30618;BME280;17384;51.214;9.202;2023-01-31T09:19:56;99159.00;;;3.97;71.94
30618;BME280;17384;51.214;9.202;2023-01-31T09:22:21;99157.16;;;3.97;72.83
30618;BME280;17384;51.214;9.202;2023-01-31T09:24:47;99152.97;;;3.95;72.44
30618;BME280;17384;51.214;9.202;2023-01-31T09:27:13;99149.47;;;4.02;72.26
30618;BME280;17384;51.214;9.202;2023-01-31T09:29:39;99143.75;;;4.14;71.97
30618;BME280;17384;51.214;9.202;2023-01-31T09:32:04;99146.28;;;4.15;71.69
30618;BME280;17384;51.214;9.202;2023-01-31T09:34:30;99147.97;;;4.08;71.87
30618;BME280;17384;51.214;9.202;2023-01-31T09:36:56;99150.13;;;4.13;71.25
30618;BME280;17384;51.214;9.202;2023-01-31T09:39:22;99147.28;;;4.14;71.69
30618;BME280;17384;51.214;9.202;2023-01-31T09:41:57;99141.25;;;4.04;72.09
30618;BME280;17384;51.214;9.202;2023-01-31T09:44:31;99131.88;;;4.08;71.52
30618;BME280;17384;51.214;9.202;2023-01-31T09:49:31;99147.78;;;4.01;72.45
30618;BME280;17384;51.214;9.202;2023-01-31T09:52:02;99146.97;;;4.09;72.10
30618;BME280;17384;51.214;9.202;2023-01-31T09:54:33;99139.06;;;4.16;70.88
30618;BME280;17384;51.214;9.202;2023-01-31T10:05:49;99138.91;;;4.17;71.25
30618;BME280;17384;51.214;9.202;2023-01-31T10:08:39;99129.84;;;4.18;71.81
30618;BME280;17384;51.214;9.202;2023-01-31T10:11:14;99126.31;;;4.18;71.76
30618;BME280;17384;51.214;9.202;2023-01-31T10:13:48;99121.13;;;4.08;71.54
30618;BME280;17384;51.214;9.202;2023-01-31T10:16:29;99121.94;;;4.17;71.53
30618;BME280;17384;51.214;9.202;2023-01-31T10:19:01;99115.41;;;4.11;71.64
30618;BME280;17384;51.214;9.202;2023-01-31T10:21:50;99101.97;;;4.11;71.64
30618;BME280;17384;51.214;9.202;2023-01-31T10:24:22;99093.44;;;4.07;71.57
30618;BME280;17384;51.214;9.202;2023-01-31T10:26:57;99081.88;;;4.07;71.90
30618;BME280;17384;51.214;9.202;2023-01-31T10:29:37;99090.09;;;4.05;72.21
30618;BME280;17384;51.214;9.202;2023-01-31T10:32:11;99080.19;;;4.06;72.58
30618;BME280;17384;51.214;9.202;2023-01-31T10:34:44;99081.03;;;4.06;72.97
30618;BME280;17384;51.214;9.202;2023-01-31T10:37:27;99084.53;;;4.07;72.92
30618;BME280;17384;51.214;9.202;2023-01-31T10:39:59;99073.13;;;4.05;73.20
30618;BME280;17384;51.214;9.202;2023-01-31T10:42:36;99078.34;;;4.06;72.57
30618;BME280;17384;51.214;9.202;2023-01-31T10:47:52;99078.47;;;4.13;73.66
30618;BME280;17384;51.214;9.202;2023-01-31T10:50:28;99065.72;;;4.15;73.25
30618;BME280;17384;51.214;9.202;2023-01-31T10:57:53;99031.03;;;4.05;72.82
30618;BME280;17384;51.214;9.202;2023-01-31T11:00:28;99043.28;;;4.08;73.22
30618;BME280;17384;51.214;9.202;2023-01-31T11:02:56;99024.94;;;4.12;73.51
30618;BME280;17384;51.214;9.202;2023-01-31T11:05:23;99027.63;;;4.12;73.07
30618;BME280;17384;51.214;9.202;2023-01-31T11:07:49;99013.38;;;4.11;72.89
30618;BME280;17384;51.214;9.202;2023-01-31T11:10:28;99014.75;;;4.07;72.70
30618;BME280;17384;51.214;9.202;2023-01-31T11:13:02;99015.09;;;4.04;73.32
30618;BME280;17384;51.214;9.202;2023-01-31T11:15:38;99035.22;;;4.00;73.20
30618;BME280;17384;51.214;9.202;2023-01-31T11:18:06;99029.00;;;4.07;73.33
30618;BME280;17384;51.214;9.202;2023-01-31T11:20:36;99020.41;;;4.12;73.68
30618;BME280;17384;51.214;9.202;2023-01-31T11:23:13;99021.47;;;4.03;73.08
30618;BME280;17384;51.214;9.202;2023-01-31T11:25:46;99013.75;;;4.08;73.08
30618;BME280;17384;51.214;9.202;2023-01-31T11:30:50;99012.22;;;4.05;73.88
30618;BME280;17384;51.214;9.202;2023-01-31T11:33:36;98997.63;;;4.00;74.65
30618;BME280;17384;51.214;9.202;2023-01-31T11:36:22;98995.97;;;4.07;74.16
30618;BME280;17384;51.214;9.202;2023-01-31T11:38:52;98985.22;;;4.07;75.18
30618;BME280;17384;51.214;9.202;2023-01-31T11:41:32;98993.09;;;3.92;75.58
30618;BME280;17384;51.214;9.202;2023-01-31T11:44:12;98987.91;;;3.83;76.59
30618;BME280;17384;51.214;9.202;2023-01-31T11:46:43;98963.44;;;3.78;75.69
30618;BME280;17384;51.214;9.202;2023-01-31T11:49:18;98951.03;;;3.77;77.21
30618;BME280;17384;51.214;9.202;2023-01-31T11:51:45;98956.56;;;3.75;77.31
30618;BME280;17384;51.214;9.202;2023-01-31T11:54:17;98939.13;;;3.71;77.08
30618;BME280;17384;51.214;9.202;2023-01-31T11:56:45;98947.50;;;3.68;77.73
30618;BME280;17384;51.214;9.202;2023-01-31T11:59:15;98922.34;;;3.69;77.88
30618;BME280;17384;51.214;9.202;2023-01-31T12:01:46;98926.88;;;3.68;77.84
30618;BME280;17384;51.214;9.202;2023-01-31T12:04:21;98923.19;;;3.69;77.06
30618;BME280;17384;51.214;9.202;2023-01-31T12:06:57;98934.25;;;3.74;77.94
30618;BME280;17384;51.214;9.202;2023-01-31T12:09:26;98926.53;;;3.71;76.77
30618;BME280;17384;51.214;9.202;2023-01-31T12:11:58;98929.56;;;3.77;77.29
30618;BME280;17384;51.214;9.202;2023-01-31T12:14:36;98924.84;;;3.87;77.39
30618;BME280;17384;51.214;9.202;2023-01-31T12:17:02;98924.53;;;3.82;77.50
30618;BME280;17384;51.214;9.202;2023-01-31T12:19:38;98906.75;;;3.81;76.55
30618;BME280;17384;51.214;9.202;2023-01-31T12:27:59;98894.69;;;3.68;76.65
30618;BME280;17384;51.214;9.202;2023-01-31T12:33:57;98902.84;;;3.83;76.17
30618;BME280;17384;51.214;9.202;2023-01-31T12:41:40;98916.78;;;3.87;76.50
30618;BME280;17384;51.214;9.202;2023-01-31T12:49:45;98907.41;;;3.74;78.31
30618;BME280;17384;51.214;9.202;2023-01-31T12:55:19;98905.53;;;3.83;77.65
30618;BME280;17384;51.214;9.202;2023-01-31T12:57:59;98908.09;;;3.77;77.93
30618;BME280;17384;51.214;9.202;2023-01-31T13:00:57;98886.97;;;3.65;77.78
30618;BME280;17384;51.214;9.202;2023-01-31T13:06:10;98885.47;;;3.63;78.57
30618;BME280;17384;51.214;9.202;2023-01-31T13:09:49;98878.09;;;3.65;78.64
30618;BME280;17384;51.214;9.202;2023-01-31T13:12:06;98863.66;;;3.66;78.69
30618;BME280;17384;51.214;9.202;2023-01-31T13:14:38;98879.25;;;3.70;79.20
30618;BME280;17384;51.214;9.202;2023-01-31T13:17:07;98866.34;;;3.66;79.03
30618;BME280;17384;51.214;9.202;2023-01-31T13:19:57;98873.56;;;3.65;78.94
30618;BME280;17384;51.214;9.202;2023-01-31T13:22:42;98858.63;;;3.63;79.34
30618;BME280;17384;51.214;9.202;2023-01-31T13:30:43;98863.69;;;3.50;80.47
30618;BME280;17384;51.214;9.202;2023-01-31T13:33:29;98858.66;;;3.47;81.01
30618;BME280;17384;51.214;9.202;2023-01-31T13:38:37;98872.91;;;3.47;81.05
30618;BME280;17384;51.214;9.202;2023-01-31T13:41:08;98873.59;;;3.49;81.09
30618;BME280;17384;51.214;9.202;2023-01-31T13:43:36;98878.09;;;3.49;81.36
30618;BME280;17384;51.214;9.202;2023-01-31T13:46:04;98871.25;;;3.54;81.14
30618;BME280;17384;51.214;9.202;2023-01-31T13:52:26;98868.56;;;3.54;80.82
30618;BME280;17384;51.214;9.202;2023-01-31T13:54:56;98870.88;;;3.57;80.43
30618;BME280;17384;51.214;9.202;2023-01-31T13:59:55;98858.47;;;3.56;80.29
30618;BME280;17384;51.214;9.202;2023-01-31T14:02:26;98859.50;;;3.55;80.36
30618;BME280;17384;51.214;9.202;2023-01-31T14:04:51;98867.56;;;3.55;80.50
30618;BME280;17384;51.214;9.202;2023-01-31T14:07:19;98841.19;;;3.59;80.23
30618;BME280;17384;51.214;9.202;2023-01-31T14:12:35;98863.50;;;3.59;80.59
30618;BME280;17384;51.214;9.202;2023-01-31T14:15:43;98846.22;;;3.62;80.96
30618;BME280;17384;51.214;9.202;2023-01-31T14:20:28;98873.25;;;3.52;81.37
30618;BME280;17384;51.214;9.202;2023-01-31T14:23:26;98870.72;;;3.51;81.89
30618;BME280;17384;51.214;9.202;2023-01-31T14:25:52;98863.19;;;3.46;81.85
30618;BME280;17384;51.214;9.202;2023-01-31T14:28:18;98875.09;;;3.44;82.30
30618;BME280;17384;51.214;9.202;2023-01-31T14:30:44;98879.28;;;3.46;82.45
30618;BME280;17384;51.214;9.202;2023-01-31T14:57:37;98879.28;;;3.46;82.92
30618;BME280;17384;51.214;9.202;2023-01-31T15:02:46;98880.44;;;3.44;82.89
30618;BME280;17384;51.214;9.202;2023-01-31T15:05:17;98873.06;;;3.46;83.48
30618;BME280;17384;51.214;9.202;2023-01-31T15:10:58;98859.34;;;3.40;83.40
30618;BME280;17384;51.214;9.202;2023-01-31T15:13:41;98862.19;;;3.39;83.59
30618;BME280;17384;51.214;9.202;2023-01-31T15:18:45;98862.00;;;3.32;84.05
30618;BME280;17384;51.214;9.202;2023-01-31T15:21:19;98852.44;;;3.30;83.94
30618;BME280;17384;51.214;9.202;2023-01-31T15:23:47;98855.13;;;3.30;83.96
30618;BME280;17384;51.214;9.202;2023-01-31T15:26:23;98834.22;;;3.17;84.11
30618;BME280;17384;51.214;9.202;2023-01-31T15:28:51;98850.13;;;3.27;84.24
30618;BME280;17384;51.214;9.202;2023-01-31T15:31:29;98860.66;;;3.28;84.43
30618;BME280;17384;51.214;9.202;2023-01-31T15:34:00;98855.50;;;3.27;84.44
30618;BME280;17384;51.214;9.202;2023-01-31T15:39:16;98863.03;;;3.23;84.55
30618;BME280;17384;51.214;9.202;2023-01-31T15:41:44;98862.53;;;3.20;84.73
30618;BME280;17384;51.214;9.202;2023-01-31T15:44:22;98865.88;;;3.22;84.67